Time;durP1;ratioP1;P1;durP2;ratioP2;P2;SDS_P1;SDS_P2;PMS_P1;PMS_P2;Temp;Humidity;BMP_temperature;BMP_pressure;BME280_temperature;BME280_humidity;BME280_pressure;Samples;Min_cycle;Max_cycle;Signal;HPM_P1;HPM_P2
2021/03/08 00:02:10;;;;;;;33.42;20.38;;;9.30;99.90;;;;;;5068976;28;20550;-66
2021/03/08 00:05:15;;;;;;;37.50;21.83;;;9.30;99.90;;;;;;5054893;28;20039;-65
2021/03/08 00:08:21;;;;;;;38.70;22.70;;;9.20;99.90;;;;;;5068790;28;20043;-65
2021/03/08 00:11:25;;;;;;;38.72;21.70;;;9.20;99.90;;;;;;5068034;28;20051;-67
2021/03/08 00:14:29;;;;;;;39.35;21.67;;;9.20;99.90;;;;;;5058517;28;20055;-66
2021/03/08 00:17:33;;;;;;;36.80;21.88;;;9.10;99.90;;;;;;5072691;28;20035;-67
2021/03/08 00:20:37;;;;;;;39.38;21.85;;;9.10;99.90;;;;;;5072481;28;20051;-67
2021/03/08 00:33:24;;;;;;;40.90;22.05;;;8.90;99.90;;;;;;5057550;28;20512;-67
2021/03/08 00:36:29;;;;;;;42.67;22.60;;;8.80;99.90;;;;;;5068286;28;20040;-67
2021/03/08 00:39:33;;;;;;;46.45;24.55;;;8.70;99.90;;;;;;5061826;28;20044;-67
2021/03/08 00:42:39;;;;;;;40.25;22.25;;;8.70;99.90;;;;;;5059475;28;20405;-65
2021/03/08 00:45:44;;;;;;;38.20;22.88;;;8.50;99.90;;;;;;5057392;28;20043;-67
2021/03/08 00:48:48;;;;;;;41.38;24.25;;;8.40;99.90;;;;;;5057858;28;20405;-67
2021/03/08 00:51:51;;;;;;;36.72;23.75;;;8.40;99.90;;;;;;5067598;28;20048;-65
2021/03/08 00:54:57;;;;;;;43.97;24.02;;;8.40;99.90;;;;;;5068116;28;20043;-66
2021/03/08 00:58:02;;;;;;;41.63;22.95;;;8.30;99.90;;;;;;5060230;28;20044;-65
2021/03/08 01:01:08;;;;;;;42.65;24.13;;;8.30;99.90;;;;;;5063260;28;20068;-67
2021/03/08 01:04:13;;;;;;;37.38;24.10;;;8.30;99.90;;;;;;5064528;28;20048;-67
2021/03/08 01:07:19;;;;;;;40.70;26.33;;;8.30;99.90;;;;;;5067120;28;20048;-66
2021/03/08 01:10:30;;;;;;;37.92;21.88;;;8.30;99.90;;;;;;5060086;28;20040;-68
2021/03/08 01:13:37;;;;;;;38.88;22.08;;;8.20;99.90;;;;;;5057944;28;20044;-66
2021/03/08 01:16:41;;;;;;;39.70;20.83;;;8.10;99.90;;;;;;5057767;28;20412;-67
2021/03/08 01:19:45;;;;;;;33.28;20.58;;;8.00;99.90;;;;;;5060251;28;20118;-67
2021/03/08 01:22:49;;;;;;;35.40;20.10;;;8.00;99.90;;;;;;5057203;28;20052;-67
2021/03/08 01:25:54;;;;;;;33.22;19.30;;;7.90;99.90;;;;;;5058239;28;20043;-66
2021/03/08 01:28:59;;;;;;;34.60;17.98;;;7.80;99.90;;;;;;5058131;28;20044;-67
2021/03/08 01:32:03;;;;;;;33.42;18.05;;;7.80;99.90;;;;;;5055756;28;20048;-67
2021/03/08 01:35:09;;;;;;;28.95;17.55;;;7.70;99.90;;;;;;5055830;28;20044;-67
2021/03/08 01:38:12;;;;;;;30.05;16.50;;;7.70;99.90;;;;;;5055304;28;20400;-66
2021/03/08 01:41:18;;;;;;;32.30;18.40;;;7.60;99.90;;;;;;5060464;28;20400;-66
2021/03/08 01:44:22;;;;;;;31.13;16.50;;;7.50;99.90;;;;;;5067630;28;20051;-67
2021/03/08 01:47:26;;;;;;;28.27;16.83;;;7.40;99.90;;;;;;5070907;28;20048;-67
2021/03/08 01:50:35;;;;;;;31.73;18.08;;;7.40;99.90;;;;;;5064798;28;20036;-67
2021/03/08 01:53:41;;;;;;;31.77;21.20;;;7.40;99.90;;;;;;5066034;28;20044;-67
2021/03/08 01:56:45;;;;;;;41.00;27.52;;;7.40;99.90;;;;;;5069302;28;20040;-67
2021/03/08 01:59:52;;;;;;;42.03;23.05;;;7.40;99.90;;;;;;5071146;28;20048;-67
2021/03/08 02:02:58;;;;;;;42.08;22.13;;;7.40;99.90;;;;;;5058063;28;20052;-67
2021/03/08 02:06:04;;;;;;;35.20;20.30;;;7.50;99.90;;;;;;5070351;28;20043;-66
2021/03/08 02:09:08;;;;;;;30.58;19.17;;;7.50;99.90;;;;;;5070609;28;20051;-65
2021/03/08 02:12:30;;;;;;;30.77;18.58;;;7.40;99.90;;;;;;5070396;28;20039;-66
2021/03/08 02:15:41;;;;;;;40.63;19.73;;;7.40;99.90;;;;;;5062716;28;20039;-65
2021/03/08 02:19:22;;;;;;;31.13;19.10;;;7.40;99.90;;;;;;5069108;28;20408;-66
2021/03/08 02:23:10;;;;;;;49.50;26.08;;;7.40;99.90;;;;;;5063697;28;20083;-67
2021/03/08 02:26:42;;;;;;;42.80;26.75;;;7.30;99.90;;;;;;5058972;28;20063;-65
2021/03/08 02:30:04;;;;;;;44.03;24.83;;;7.20;99.90;;;;;;5070756;28;20051;-66
2021/03/08 02:33:11;;;;;;;39.13;23.57;;;7.20;99.90;;;;;;5070629;28;20047;-65
2021/03/08 02:36:17;;;;;;;39.65;21.20;;;7.20;99.90;;;;;;5049432;28;20056;-67
2021/03/08 02:39:34;;;;;;;37.80;21.15;;;7.20;99.90;;;;;;5067952;28;20094;-67
2021/03/08 02:42:42;;;;;;;41.83;21.35;;;7.20;99.90;;;;;;5054485;28;20039;-65
2021/03/08 02:45:50;;;;;;;34.65;18.98;;;7.30;99.90;;;;;;5058303;28;20056;-66
2021/03/08 02:49:00;;;;;;;34.63;19.55;;;7.30;99.90;;;;;;5070311;28;20044;-67
2021/03/08 02:52:10;;;;;;;30.95;17.52;;;7.30;99.90;;;;;;5069614;28;20423;-67
2021/03/08 02:55:16;;;;;;;36.28;18.98;;;7.30;99.90;;;;;;5049473;28;20056;-67
2021/03/08 02:58:24;;;;;;;35.25;18.58;;;7.30;99.90;;;;;;5055793;28;20055;-66
2021/03/08 03:01:31;;;;;;;35.38;19.15;;;7.20;99.90;;;;;;5068346;28;20040;-67
2021/03/08 03:04:38;;;;;;;44.80;23.23;;;7.20;99.90;;;;;;5064838;28;20051;-66
2021/03/08 03:07:46;;;;;;;48.85;27.15;;;7.10;99.90;;;;;;5052531;28;20039;-66
2021/03/08 03:10:51;;;;;;;41.47;23.73;;;7.10;99.90;;;;;;5069116;28;20035;-66
2021/03/08 03:13:57;;;;;;;44.05;24.58;;;7.00;99.90;;;;;;5069921;28;20404;-65
2021/03/08 03:17:08;;;;;;;43.15;24.23;;;7.00;99.90;;;;;;5069143;28;20059;-67
2021/03/08 03:20:14;;;;;;;40.75;24.27;;;7.10;99.90;;;;;;5059449;28;20047;-67
2021/03/08 03:23:22;;;;;;;41.05;23.00;;;7.10;99.90;;;;;;5069616;28;20051;-65
2021/03/08 03:26:29;;;;;;;37.10;21.08;;;7.00;99.90;;;;;;5068332;28;20059;-65
2021/03/08 03:29:36;;;;;;;34.78;19.15;;;7.00;99.90;;;;;;5069529;28;20047;-67
2021/03/08 03:32:42;;;;;;;36.58;20.38;;;7.00;99.90;;;;;;5056807;28;20048;-67
2021/03/08 03:35:47;;;;;;;40.55;19.90;;;6.90;99.90;;;;;;5068002;28;20511;-66
2021/03/08 03:38:57;;;;;;;41.22;21.00;;;7.00;99.90;;;;;;5067111;28;20051;-67
2021/03/08 03:42:05;;;;;;;38.45;22.48;;;7.00;99.90;;;;;;5062672;28;20044;-67
2021/03/08 03:45:11;;;;;;;39.65;21.85;;;7.00;99.90;;;;;;5068894;28;20523;-67
2021/03/08 03:48:15;;;;;;;39.22;23.27;;;7.00;99.90;;;;;;5069392;28;20040;-66
2021/03/08 03:51:20;;;;;;;38.85;22.80;;;7.00;99.90;;;;;;5055039;28;20055;-67
2021/03/08 03:54:25;;;;;;;43.78;23.10;;;7.00;99.90;;;;;;5067948;28;20040;-66
2021/03/08 03:57:39;;;;;;;43.78;26.33;;;7.00;99.90;;;;;;5069052;28;20071;-66
2021/03/08 04:01:21;;;;;;;51.55;28.10;;;7.00;99.90;;;;;;5055212;28;20065;-67
2021/03/08 04:04:52;;;;;;;49.45;28.38;;;7.00;99.90;;;;;;5069212;28;20035;-67
2021/03/08 04:07:56;;;;;;;53.38;30.80;;;7.10;99.90;;;;;;5066739;28;20036;-65
2021/03/08 04:11:04;;;;;;;54.75;30.33;;;7.20;99.90;;;;;;5068567;28;20044;-67
2021/03/08 04:14:09;;;;;;;47.35;27.77;;;7.20;99.90;;;;;;5069173;28;20466;-65
2021/03/08 04:17:16;;;;;;;865.97;498.75;;;7.20;99.90;;;;;;5068166;28;20055;-67
2021/03/08 04:20:21;;;;;;;81.72;42.78;;;7.00;99.90;;;;;;5056886;28;20055;-67
2021/03/08 04:23:27;;;;;;;29.35;16.20;;;7.00;99.90;;;;;;5068726;28;20428;-66
2021/03/08 04:26:31;;;;;;;38.42;18.02;;;6.90;99.90;;;;;;5067496;28;20324;-66
2021/03/08 04:29:40;;;;;;;31.48;17.25;;;6.80;99.90;;;;;;5069080;28;20055;-66
2021/03/08 04:32:49;;;;;;;33.65;18.45;;;6.70;99.90;;;;;;5056970;28;20071;-67
2021/03/08 04:35:53;;;;;;;37.28;19.77;;;6.70;99.90;;;;;;5067665;28;20357;-66
2021/03/08 04:38:59;;;;;;;39.15;19.85;;;6.60;99.90;;;;;;5068586;28;20043;-65
2021/03/08 04:42:08;;;;;;;34.70;20.05;;;6.50;99.90;;;;;;5069056;28;20047;-66
2021/03/08 04:45:17;;;;;;;45.67;24.30;;;6.50;99.90;;;;;;5068430;28;20040;-65
2021/03/08 04:48:22;;;;;;;43.22;28.85;;;6.50;99.90;;;;;;5069170;28;20047;-67
2021/03/08 04:51:29;;;;;;;42.50;26.15;;;6.50;99.90;;;;;;5056513;28;20047;-67
2021/03/08 04:54:35;;;;;;;43.10;24.55;;;6.40;99.90;;;;;;5068754;28;20044;-66
2021/03/08 04:57:40;;;;;;;39.38;24.92;;;6.40;99.90;;;;;;5067838;28;20035;-67
2021/03/08 05:00:44;;;;;;;37.35;24.05;;;6.40;99.90;;;;;;5068441;28;20048;-65
2021/03/08 05:03:52;;;;;;;62.35;41.42;;;6.40;99.90;;;;;;5071671;28;20048;-66
2021/03/08 05:06:58;;;;;;;62.67;46.38;;;6.40;99.90;;;;;;5071344;28;20044;-67
2021/03/08 05:10:03;;;;;;;60.10;41.88;;;6.40;99.90;;;;;;5058872;28;20040;-67
2021/03/08 05:13:10;;;;;;;54.67;36.17;;;6.40;99.90;;;;;;5071385;28;20036;-66
2021/03/08 05:16:16;;;;;;;57.90;35.05;;;6.40;99.90;;;;;;5061736;28;20068;-67
2021/03/08 05:19:21;;;;;;;53.55;34.47;;;6.40;99.90;;;;;;5065539;28;20067;-67
2021/03/08 05:22:26;;;;;;;62.92;36.42;;;6.40;99.90;;;;;;5071738;28;20047;-66
2021/03/08 05:25:33;;;;;;;55.17;28.40;;;6.40;99.90;;;;;;5059627;28;20044;-67
2021/03/08 05:28:37;;;;;;;43.22;24.90;;;6.30;99.90;;;;;;5057646;28;20056;-67
2021/03/08 05:31:46;;;;;;;36.17;23.05;;;6.20;99.90;;;;;;5064313;28;20040;-65
2021/03/08 05:34:51;;;;;;;37.63;19.85;;;6.20;99.90;;;;;;5062656;28;20039;-67
2021/03/08 05:37:58;;;;;;;33.80;19.95;;;6.10;99.90;;;;;;5071303;28;20035;-66
2021/03/08 05:41:15;;;;;;;43.67;20.98;;;6.10;99.90;;;;;;5057987;28;20043;-67
2021/03/08 05:44:22;;;;;;;36.75;20.90;;;6.10;99.90;;;;;;5071738;28;20039;-67
2021/03/08 05:47:36;;;;;;;44.45;23.13;;;6.10;99.90;;;;;;5068350;28;20059;-65
2021/03/08 05:50:58;;;;;;;43.75;23.10;;;6.20;99.90;;;;;;5071432;28;20043;-67
2021/03/08 05:54:25;;;;;;;36.25;20.10;;;6.30;99.90;;;;;;5071360;28;20408;-66
2021/03/08 05:57:35;;;;;;;43.45;21.38;;;6.40;99.90;;;;;;5066223;28;20036;-67
2021/03/08 06:01:18;;;;;;;36.60;21.23;;;6.30;99.90;;;;;;5056684;28;20436;-67
2021/03/08 06:04:42;;;;;;;;;;;6.40;99.90;;;;;;5068822;28;20408;-67
2021/03/08 06:08:01;;;;;;;;;;;6.50;99.90;;;;;;5068300;28;19923;-67
2021/03/08 06:11:07;;;;;;;46.40;24.13;;;6.60;99.90;;;;;;5067692;28;19923;-67
2021/03/08 06:14:17;;;;;;;42.45;20.80;;;6.40;99.90;;;;;;5037814;28;20576;-67
2021/03/08 06:17:22;;;;;;;45.83;24.23;;;6.50;99.90;;;;;;5023091;28;20060;-68
2021/03/08 06:20:28;;;;;;;35.97;22.05;;;6.60;99.90;;;;;;5036851;28;20530;-67
2021/03/08 06:23:34;;;;;;;41.88;23.40;;;6.80;99.90;;;;;;5051303;28;20052;-67
2021/03/08 06:26:40;;;;;;;39.25;23.52;;;7.00;99.90;;;;;;5055353;28;20051;-67
2021/03/08 06:29:45;;;;;;;39.53;23.40;;;7.40;99.90;;;;;;5057542;28;20055;-66
2021/03/08 06:32:51;;;;;;;43.67;22.23;;;8.00;99.90;;;;;;5056886;28;20051;-67
2021/03/08 06:36:00;;;;;;;38.00;21.10;;;8.60;99.90;;;;;;5055845;28;20079;-67
2021/03/08 06:39:04;;;;;;;32.08;18.98;;;9.10;99.90;;;;;;5057984;28;20047;-67
2021/03/08 06:42:10;;;;;;;32.50;19.38;;;9.60;99.90;;;;;;5055285;28;20066;-66
2021/03/08 06:45:15;;;;;;;34.60;17.60;;;10.20;99.90;;;;;;5049670;28;20043;-68
2021/03/08 06:48:20;;;;;;;29.60;17.80;;;11.10;99.90;;;;;;5051125;28;20594;-67
2021/03/08 06:51:24;;;;;;;24.27;15.75;;;11.90;99.90;;;;;;5047960;28;20048;-67
2021/03/08 06:54:30;;;;;;;26.52;15.18;;;12.80;99.90;;;;;;5036044;28;21394;-66
2021/03/08 06:57:36;;;;;;;30.40;16.42;;;13.40;99.90;;;;;;5052369;28;20051;-66
2021/03/08 07:00:40;;;;;;;30.92;15.95;;;13.60;99.90;;;;;;5061399;28;20055;-67
2021/03/08 07:03:44;;;;;;;24.25;14.75;;;14.40;99.90;;;;;;5065370;28;20054;-68
2021/03/08 07:07:03;;;;;;;26.17;15.27;;;13.90;99.90;;;;;;5071541;28;20039;-67
2021/03/08 07:10:08;;;;;;;27.23;16.17;;;14.90;99.90;;;;;;5060249;28;20036;-67
2021/03/08 07:13:12;;;;;;;26.35;16.20;;;14.50;99.90;;;;;;5068083;28;20051;-68
2021/03/08 07:16:17;;;;;;;25.33;14.88;;;14.80;99.90;;;;;;5068474;28;20063;-68
2021/03/08 07:19:21;;;;;;;21.50;13.52;;;15.20;99.90;;;;;;5067014;28;20747;-68
2021/03/08 07:22:51;;;;;;;23.63;14.02;;;16.20;99.90;;;;;;5065271;28;20032;-68
2021/03/08 07:26:05;;;;;;;26.83;16.08;;;17.40;99.90;;;;;;5060063;28;20059;-68
2021/03/08 07:29:11;;;;;;;32.60;17.55;;;16.40;99.90;;;;;;5062020;28;20052;-67
2021/03/08 07:32:15;;;;;;;25.75;16.42;;;16.20;99.90;;;;;;5061500;28;20520;-69
2021/03/08 07:35:41;;;;;;;21.02;13.35;;;16.30;99.90;;;;;;5062205;28;20043;-68
2021/03/08 07:38:45;;;;;;;26.15;15.13;;;18.10;99.90;;;;;;5062022;28;20297;-68
2021/03/08 07:41:55;;;;;;;25.20;15.55;;;19.50;99.20;;;;;;5060818;28;20060;-68
2021/03/08 07:44:59;;;;;;;31.20;14.63;;;19.80;98.60;;;;;;5060393;28;20059;-68
2021/03/08 07:48:09;;;;;;;23.13;15.00;;;20.40;97.70;;;;;;5058769;28;20409;-68
2021/03/08 07:51:14;;;;;;;22.05;15.27;;;20.20;96.30;;;;;;5052699;28;20056;-68
2021/03/08 07:54:18;;;;;;;22.98;14.35;;;20.80;96.10;;;;;;5053071;28;20034;-68
2021/03/08 07:57:24;;;;;;;20.27;12.88;;;21.20;95.60;;;;;;5046715;28;20062;-67
2021/03/08 08:00:30;;;;;;;20.83;13.63;;;21.60;93.50;;;;;;5066774;28;20039;-66
2021/03/08 08:03:38;;;;;;;20.63;14.82;;;20.80;93.50;;;;;;5065918;28;20498;-67
2021/03/08 08:06:43;;;;;;;20.45;13.55;;;21.00;94.50;;;;;;5069120;28;20047;-67
2021/03/08 08:09:49;;;;;;;20.30;14.02;;;21.40;93.60;;;;;;5069063;28;20063;-67
2021/03/08 08:13:01;;;;;;;18.08;14.40;;;22.60;92.90;;;;;;5070824;28;20035;-68
2021/03/08 08:16:25;;;;;;;;;;;23.30;91.30;;;;;;5069471;28;20048;-68
2021/03/08 08:19:31;;;;;;;27.10;16.38;;;21.30;91.50;;;;;;5065140;28;19946;-67
2021/03/08 08:22:51;;;;;;;23.52;15.95;;;20.70;92.00;;;;;;5054858;28;20031;-68
2021/03/08 08:26:01;;;;;;;28.23;17.95;;;19.40;93.40;;;;;;5065128;28;20033;-68
2021/03/08 08:29:08;;;;;;;22.73;17.88;;;19.10;93.90;;;;;;5069069;28;20392;-68
2021/03/08 08:32:13;;;;;;;24.60;16.75;;;18.30;93.80;;;;;;5073722;28;20042;-67
2021/03/08 08:35:29;;;;;;;25.45;16.10;;;19.40;94.70;;;;;;5066210;28;20039;-68
2021/03/08 08:39:00;;;;;;;24.05;16.63;;;19.60;93.40;;;;;;5075115;28;20067;-68
2021/03/08 08:42:36;;;;;;;24.87;16.40;;;19.10;93.90;;;;;;5062523;28;20103;-67
2021/03/08 08:45:54;;;;;;;23.23;15.73;;;17.60;96.00;;;;;;5065569;28;20044;-67
2021/03/08 08:49:18;;;;;;;23.38;16.73;;;17.70;96.10;;;;;;5064776;28;20043;-67
2021/03/08 08:52:41;;;;;;;21.30;15.60;;;16.10;98.00;;;;;;5057336;28;20054;-67
2021/03/08 08:56:02;;;;;;;22.40;14.25;;;17.20;97.90;;;;;;5055530;28;20036;-67
2021/03/08 08:59:20;;;;;;;23.13;13.80;;;18.90;96.40;;;;;;5060177;28;20055;-67
2021/03/08 09:02:34;;;;;;;21.23;15.10;;;22.40;92.30;;;;;;5067788;28;20035;-68
2021/03/08 09:05:44;;;;;;;20.15;14.75;;;24.40;89.20;;;;;;5067686;28;20043;-66
2021/03/08 09:08:58;;;;;;;20.63;14.13;;;25.10;84.60;;;;;;5067814;28;20530;-68
2021/03/08 09:12:28;;;;;;;19.17;13.32;;;26.70;81.40;;;;;;5069308;28;20035;-67
2021/03/08 09:15:50;;;;;;;18.02;12.00;;;28.10;74.40;;;;;;5067540;28;20044;-68
2021/03/08 09:19:27;;;;;;;18.38;12.18;;;28.40;71.40;;;;;;5063950;28;20055;-68
2021/03/08 09:22:50;;;;;;;15.00;11.38;;;27.80;68.40;;;;;;5062890;28;20047;-67
2021/03/08 09:26:05;;;;;;;16.13;11.85;;;28.80;67.70;;;;;;5063359;28;20055;-68
2021/03/08 09:29:09;;;;;;;14.70;11.13;;;29.70;64.70;;;;;;5067465;28;20051;-67
2021/03/08 09:32:14;;;;;;;17.38;10.93;;;30.20;62.20;;;;;;5070681;28;20131;-67
2021/03/08 09:35:21;;;;;;;14.35;10.88;;;29.60;60.00;;;;;;5069493;28;20404;-67
2021/03/08 09:38:26;;;;;;;16.48;11.88;;;25.90;63.20;;;;;;5063933;28;20048;-67
2021/03/08 09:41:31;;;;;;;18.17;11.77;;;25.40;65.30;;;;;;5068782;28;20526;-67
2021/03/08 09:44:43;;;;;;;14.23;11.52;;;25.20;67.60;;;;;;5065633;28;20397;-66
2021/03/08 09:47:50;;;;;;;19.85;11.93;;;22.90;72.50;;;;;;5063956;28;20044;-67
2021/03/08 09:51:02;;;;;;;14.90;10.93;;;24.90;69.20;;;;;;5063910;28;20036;-67
2021/03/08 09:54:07;;;;;;;13.98;10.20;;;27.60;67.00;;;;;;5053614;28;20051;-67
2021/03/08 09:57:29;;;;;;;16.73;10.38;;;29.40;63.70;;;;;;5061483;28;20051;-67
2021/03/08 10:00:34;;;;;;;17.38;10.73;;;30.20;59.70;;;;;;5055203;28;20043;-67
2021/03/08 10:03:39;;;;;;;14.98;10.82;;;31.80;58.00;;;;;;5051169;28;20044;-67
2021/03/08 10:06:45;;;;;;;15.65;9.98;;;25.80;61.30;;;;;;5066260;28;20040;-67
2021/03/08 10:10:09;;;;;;;15.93;10.85;;;27.20;62.80;;;;;;5070531;28;20055;-67
2021/03/08 10:13:15;;;;;;;15.27;10.68;;;29.50;60.00;;;;;;5070940;28;20094;-67
2021/03/08 10:16:29;;;;;;;14.98;9.68;;;29.90;57.10;;;;;;5068559;28;20055;-67
2021/03/08 10:19:38;;;;;;;14.30;9.60;;;30.20;58.10;;;;;;5065939;28;20040;-67
2021/03/08 10:22:43;;;;;;;21.50;8.70;;;32.80;56.30;;;;;;5060190;28;20305;-68
2021/03/08 10:25:48;;;;;;;13.07;8.63;;;34.80;54.10;;;;;;5071256;28;20043;-68
2021/03/08 10:28:52;;;;;;;13.70;8.75;;;35.80;51.50;;;;;;5078860;28;20046;-68
2021/03/08 10:31:57;;;;;;;12.80;8.70;;;36.20;49.20;;;;;;5063756;28;20055;-68
2021/03/08 10:35:01;;;;;;;11.23;8.68;;;36.40;49.30;;;;;;5056986;28;20408;-67
2021/03/08 10:38:07;;;;;;;11.68;9.57;;;36.90;47.80;;;;;;5060769;28;20047;-68
2021/03/08 10:41:12;;;;;;;11.90;7.78;;;35.60;45.40;;;;;;5063623;28;20043;-68
2021/03/08 10:44:21;;;;;;;14.65;8.68;;;36.00;46.80;;;;;;5067639;28;20051;-68
2021/03/08 10:47:26;;;;;;;11.07;8.57;;;36.50;45.70;;;;;;5056268;28;20378;-68
2021/03/08 10:50:57;;;;;;;14.57;9.57;;;34.10;47.20;;;;;;5054139;28;20436;-68
2021/03/08 10:54:03;;;;;;;15.60;9.35;;;30.60;46.20;;;;;;5058457;28;20039;-67
2021/03/08 10:57:09;;;;;;;18.70;8.70;;;30.20;50.90;;;;;;5064183;28;20059;-68
2021/03/08 11:00:19;;;;;;;9.85;7.53;;;32.40;49.10;;;;;;5068487;28;20052;-67
2021/03/08 11:03:38;;;;;;;11.73;7.70;;;32.30;48.20;;;;;;5067593;28;20039;-67
2021/03/08 11:06:46;;;;;;;13.50;9.02;;;33.60;47.90;;;;;;5066741;28;20039;-67
2021/03/08 11:09:50;;;;;;;16.20;8.18;;;30.10;48.80;;;;;;5063771;28;20038;-66
2021/03/08 11:13:06;;;;;;;15.45;8.57;;;28.70;50.70;;;;;;5064088;28;20032;-67
2021/03/08 11:16:14;;;;;;;10.65;7.00;;;30.20;50.50;;;;;;5062944;28;20044;-67
2021/03/08 11:19:19;;;;;;;12.23;7.97;;;32.60;47.90;;;;;;5061731;28;20043;-67
2021/03/08 11:22:23;;;;;;;12.77;8.27;;;33.40;47.60;;;;;;5061071;28;20039;-67
2021/03/08 11:25:41;;;;;;;13.73;8.85;;;31.20;47.10;;;;;;5060613;28;20051;-67
2021/03/08 11:28:46;;;;;;;17.63;9.82;;;27.70;51.70;;;;;;5056685;28;20060;-66
2021/03/08 11:31:54;;;;;;;15.07;10.07;;;24.60;56.20;;;;;;5062457;28;20036;-67
2021/03/08 11:34:59;;;;;;;15.07;8.50;;;25.80;54.70;;;;;;5061091;28;20044;-66
2021/03/08 11:38:11;;;;;;;14.80;8.77;;;29.00;52.10;;;;;;5056141;28;20039;-66
2021/03/08 11:41:15;;;;;;;12.65;8.50;;;29.90;49.20;;;;;;5059668;28;20040;-67
2021/03/08 11:44:22;;;;;;;13.30;8.50;;;31.90;49.10;;;;;;5058233;28;20467;-67
2021/03/08 11:47:27;;;;;;;11.85;8.68;;;33.90;47.20;;;;;;5061150;28;20047;-67
2021/03/08 11:50:33;;;;;;;10.35;7.80;;;33.90;46.70;;;;;;5064864;28;20039;-67
2021/03/08 11:53:37;;;;;;;12.25;8.70;;;32.40;45.90;;;;;;5059396;28;20048;-66
2021/03/08 11:56:41;;;;;;;18.08;9.63;;;28.90;48.20;;;;;;5060197;28;20672;-66
2021/03/08 11:59:45;;;;;;;19.88;10.48;;;25.90;52.00;;;;;;5060509;28;20817;-68
2021/03/08 12:02:49;;;;;;;18.55;10.60;;;23.80;56.00;;;;;;5053618;28;20043;-68
2021/03/08 12:05:54;;;;;;;14.70;9.13;;;24.40;57.90;;;;;;5061222;28;20044;-66
2021/03/08 12:08:59;;;;;;;15.18;9.25;;;25.60;55.30;;;;;;5062380;28;20407;-66
2021/03/08 12:12:03;;;;;;;21.10;9.18;;;25.50;55.70;;;;;;5062807;28;20040;-68
2021/03/08 12:15:10;;;;;;;17.25;9.30;;;25.30;55.80;;;;;;5068260;28;20032;-68
2021/03/08 12:18:14;;;;;;;12.65;8.98;;;25.40;52.50;;;;;;5059806;28;20043;-68
2021/03/08 12:21:19;;;;;;;13.20;9.05;;;24.50;55.20;;;;;;5061626;28;20082;-68
2021/03/08 12:24:23;;;;;;;11.55;8.35;;;25.40;55.30;;;;;;5061274;28;20040;-67
2021/03/08 12:27:27;;;;;;;15.05;8.32;;;26.30;55.50;;;;;;5057934;28;20051;-68
2021/03/08 12:30:31;;;;;;;11.30;7.30;;;28.50;52.60;;;;;;5063512;28;20739;-68
2021/03/08 12:33:37;;;;;;;10.45;6.32;;;30.30;49.60;;;;;;5070589;28;20043;-68
2021/03/08 12:36:41;;;;;;;15.02;6.72;;;30.80;48.80;;;;;;5062231;28;20047;-68
2021/03/08 12:39:45;;;;;;;11.02;6.03;;;30.30;49.30;;;;;;5064922;28;20048;-67
2021/03/08 12:42:50;;;;;;;9.18;6.20;;;29.40;49.70;;;;;;5064966;28;20044;-68
2021/03/08 12:45:54;;;;;;;10.00;5.90;;;29.10;47.50;;;;;;5066779;28;20039;-68
2021/03/08 12:48:58;;;;;;;13.90;6.00;;;27.20;49.90;;;;;;5071264;28;20048;-68
2021/03/08 12:52:02;;;;;;;10.88;5.63;;;29.60;49.90;;;;;;5067782;28;20047;-66
2021/03/08 12:55:07;;;;;;;12.15;6.25;;;31.30;47.50;;;;;;5066478;28;20040;-68
2021/03/08 12:58:11;;;;;;;11.85;6.05;;;30.80;48.00;;;;;;5069983;28;20043;-67
2021/03/08 13:01:15;;;;;;;11.90;6.55;;;29.50;49.20;;;;;;5069908;28;20055;-67
2021/03/08 13:04:19;;;;;;;10.90;5.10;;;28.70;50.10;;;;;;5054666;28;20060;-68
2021/03/08 13:07:23;;;;;;;12.68;5.55;;;28.60;48.20;;;;;;5035625;28;20735;-66
2021/03/08 13:10:28;;;;;;;9.52;5.65;;;25.00;52.30;;;;;;5033253;28;20048;-67
2021/03/08 13:13:32;;;;;;;11.73;5.88;;;23.90;53.60;;;;;;5047173;28;20039;-66
2021/03/08 13:16:36;;;;;;;14.20;5.72;;;21.60;56.20;;;;;;5048356;28;20050;-66
2021/03/08 13:19:41;;;;;;;12.10;5.90;;;21.90;56.90;;;;;;5059069;28;20043;-66
2021/03/08 13:22:47;;;;;;;14.98;5.50;;;21.40;58.20;;;;;;5051540;28;20051;-67
2021/03/08 13:25:53;;;;;;;9.30;5.10;;;21.30;58.60;;;;;;5047357;28;20043;-67
2021/03/08 13:28:57;;;;;;;13.05;6.32;;;21.70;58.40;;;;;;5059057;28;20047;-67
2021/03/08 13:32:03;;;;;;;9.95;5.70;;;22.50;57.50;;;;;;5071584;28;20051;-67
2021/03/08 13:35:09;;;;;;;19.25;5.68;;;23.00;56.90;;;;;;5068281;28;20044;-67
2021/03/08 13:38:13;;;;;;;12.38;6.18;;;21.30;59.70;;;;;;5065634;28;20290;-67
2021/03/08 13:41:17;;;;;;;14.13;5.50;;;20.10;60.60;;;;;;5066065;28;20055;-66
2021/03/08 13:44:23;;;;;;;13.90;5.97;;;18.20;64.30;;;;;;5063512;28;20047;-66
2021/03/08 13:47:28;;;;;;;12.35;6.13;;;17.50;67.30;;;;;;5066689;28;20047;-67
2021/03/08 13:50:33;;;;;;;17.15;6.28;;;17.00;69.30;;;;;;5068745;28;20040;-67
2021/03/08 13:53:38;;;;;;;15.38;6.78;;;16.80;69.90;;;;;;5052430;28;20515;-68
2021/03/08 13:56:42;;;;;;;12.20;6.65;;;16.60;72.80;;;;;;5055961;28;20432;-66
2021/03/08 13:59:47;;;;;;;16.73;8.50;;;16.30;75.80;;;;;;5058301;28;20051;-67
2021/03/08 14:02:51;;;;;;;15.40;7.30;;;15.70;79.80;;;;;;5053178;28;20048;-66
2021/03/08 14:05:56;;;;;;;12.82;6.50;;;15.20;82.90;;;;;;5056083;28;20039;-65
2021/03/08 14:09:00;;;;;;;13.60;6.35;;;14.60;87.00;;;;;;5057707;28;20051;-67
2021/03/08 14:12:05;;;;;;;14.20;5.80;;;14.30;90.90;;;;;;5056321;28;20060;-67
2021/03/08 14:15:11;;;;;;;11.00;5.60;;;14.10;90.90;;;;;;5056801;28;20064;-68
2021/03/08 14:18:15;;;;;;;12.23;6.20;;;13.90;91.70;;;;;;5065318;28;20048;-68
2021/03/08 14:21:19;;;;;;;18.33;7.10;;;13.90;92.80;;;;;;5074464;28;20051;-68
2021/03/08 14:24:23;;;;;;;15.00;5.57;;;13.90;93.60;;;;;;5076994;28;20046;-67
2021/03/08 14:27:27;;;;;;;10.00;5.20;;;13.90;94.90;;;;;;5069529;28;20395;-67
2021/03/08 14:30:32;;;;;;;11.38;4.68;;;13.90;95.10;;;;;;5070776;28;20060;-68
2021/03/08 14:33:36;;;;;;;15.10;6.60;;;13.80;95.60;;;;;;5074265;28;20419;-68
2021/03/08 14:36:40;;;;;;;10.25;5.18;;;13.90;96.40;;;;;;5068674;28;20408;-67
2021/03/08 14:39:49;;;;;;;14.60;5.10;;;14.60;96.50;;;;;;5058197;28;20044;-67
2021/03/08 14:42:57;;;;;;;22.95;15.13;;;14.90;95.90;;;;;;5066380;28;20083;-67
2021/03/08 14:46:02;;;;;;;32.58;21.17;;;14.80;96.20;;;;;;5063192;28;20051;-67
2021/03/08 14:49:06;;;;;;;26.00;13.65;;;14.50;95.90;;;;;;5067720;28;20039;-67
2021/03/08 14:52:10;;;;;;;18.08;11.10;;;14.10;95.90;;;;;;5067614;28;20051;-67
2021/03/08 14:55:16;;;;;;;11.10;5.43;;;13.90;95.00;;;;;;5066668;28;20055;-68
2021/03/08 14:58:20;;;;;;;9.60;5.43;;;13.90;95.90;;;;;;5064515;28;20044;-68
2021/03/08 15:01:24;;;;;;;16.10;8.05;;;14.10;96.30;;;;;;5067249;28;20400;-67
2021/03/08 15:04:28;;;;;;;12.88;7.43;;;14.10;96.10;;;;;;5066482;28;20048;-68
2021/03/08 15:07:34;;;;;;;13.07;7.00;;;14.40;95.70;;;;;;5066806;28;20286;-68
2021/03/08 15:10:39;;;;;;;24.20;11.65;;;14.70;95.40;;;;;;5068357;28;20043;-68
2021/03/08 15:13:44;;;;;;;26.75;15.23;;;14.70;95.80;;;;;;5064572;28;20423;-68
2021/03/08 15:16:49;;;;;;;50.15;25.83;;;14.60;95.50;;;;;;5065670;28;20047;-68
2021/03/08 15:19:53;;;;;;;32.00;18.88;;;14.70;95.80;;;;;;5066222;28;20043;-68
2021/03/08 15:22:57;;;;;;;16.30;9.50;;;14.80;95.90;;;;;;5066725;28;20048;-68
2021/03/08 15:26:01;;;;;;;17.23;10.30;;;14.70;95.20;;;;;;5064487;28;20043;-68
2021/03/08 15:29:05;;;;;;;10.38;6.20;;;14.80;95.30;;;;;;5065557;28;20843;-67
2021/03/08 15:32:11;;;;;;;16.92;8.63;;;14.90;95.10;;;;;;5065374;28;20660;-68
2021/03/08 15:35:22;;;;;;;12.15;5.57;;;15.00;94.20;;;;;;5064561;28;20047;-68
2021/03/08 15:38:27;;;;;;;11.70;5.40;;;15.10;94.70;;;;;;5064814;28;20055;-68
2021/03/08 15:41:31;;;;;;;12.05;6.13;;;15.30;94.60;;;;;;5067861;28;20052;-68
2021/03/08 15:44:36;;;;;;;14.85;6.50;;;15.40;93.40;;;;;;5064452;28;20032;-67
2021/03/08 15:47:40;;;;;;;25.27;15.88;;;15.30;93.30;;;;;;5065160;28;20040;-68
2021/03/08 15:50:44;;;;;;;16.95;7.90;;;15.10;93.50;;;;;;5067149;28;20051;-68
2021/03/08 15:53:49;;;;;;;14.25;8.55;;;15.00;93.90;;;;;;5067098;28;20036;-68
2021/03/08 15:56:53;;;;;;;19.52;10.25;;;14.70;94.60;;;;;;5068075;28;20510;-68
2021/03/08 15:59:58;;;;;;;18.88;9.55;;;14.60;95.30;;;;;;5065461;28;20035;-68
2021/03/08 16:03:03;;;;;;;14.85;7.70;;;14.40;95.50;;;;;;5062001;28;20083;-67
2021/03/08 16:06:07;;;;;;;17.50;9.68;;;14.20;96.10;;;;;;5063743;28;20546;-67
2021/03/08 16:09:12;;;;;;;14.50;8.95;;;14.20;96.90;;;;;;5067303;28;21025;-68
2021/03/08 16:12:16;;;;;;;13.45;8.90;;;14.00;97.40;;;;;;5069448;28;20925;-68
2021/03/08 16:15:20;;;;;;;22.20;11.18;;;14.00;97.90;;;;;;5067347;28;20420;-68